sensor_id;sensor_type;location;lat;lon;timestamp;P1;durP1;ratioP1;P2;durP2;ratioP2
62338;SDS011;48368;53.406;6.214;2023-03-17T00:00:18;12.15;;;6.10;;
62338;SDS011;48368;53.406;6.214;2023-03-17T00:02:45;9.35;;;5.65;;
62338;SDS011;48368;53.406;6.214;2023-03-17T00:05:17;10.60;;;5.78;;
62338;SDS011;48368;53.406;6.214;2023-03-17T00:07:48;9.18;;;5.57;;
62338;SDS011;48368;53.406;6.214;2023-03-17T00:10:16;8.60;;;6.38;;
62338;SDS011;48368;53.406;6.214;2023-03-17T00:12:48;8.53;;;5.13;;
62338;SDS011;48368;53.406;6.214;2023-03-17T00:15:15;11.63;;;5.57;;
62338;SDS011;48368;53.406;6.214;2023-03-17T00:17:42;8.85;;;5.40;;
62338;SDS011;48368;53.406;6.214;2023-03-17T00:20:10;8.98;;;6.50;;
62338;SDS011;48368;53.406;6.214;2023-03-17T00:22:38;8.15;;;5.63;;
62338;SDS011;48368;53.406;6.214;2023-03-17T00:25:24;8.50;;;5.28;;
62338;SDS011;48368;53.406;6.214;2023-03-17T00:27:52;8.35;;;5.32;;
62338;SDS011;48368;53.406;6.214;2023-03-17T00:30:19;9.45;;;5.30;;
62338;SDS011;48368;53.406;6.214;2023-03-17T00:32:45;7.68;;;4.80;;
62338;SDS011;48368;53.406;6.214;2023-03-17T00:35:14;10.05;;;5.40;;
62338;SDS011;48368;53.406;6.214;2023-03-17T00:37:41;9.18;;;5.93;;
62338;SDS011;48368;53.406;6.214;2023-03-17T00:40:08;13.38;;;6.13;;
62338;SDS011;48368;53.406;6.214;2023-03-17T00:42:43;10.52;;;5.78;;
62338;SDS011;48368;53.406;6.214;2023-03-17T00:45:09;8.43;;;5.53;;
62338;SDS011;48368;53.406;6.214;2023-03-17T00:47:35;7.68;;;4.60;;
62338;SDS011;48368;53.406;6.214;2023-03-17T00:50:02;10.02;;;5.90;;
62338;SDS011;48368;53.406;6.214;2023-03-17T00:52:29;9.35;;;5.35;;
62338;SDS011;48368;53.406;6.214;2023-03-17T00:54:55;8.88;;;5.70;;
62338;SDS011;48368;53.406;6.214;2023-03-17T00:57:20;8.85;;;5.30;;
62338;SDS011;48368;53.406;6.214;2023-03-17T00:59:46;7.43;;;5.10;;
62338;SDS011;48368;53.406;6.214;2023-03-17T01:02:12;8.18;;;5.35;;
62338;SDS011;48368;53.406;6.214;2023-03-17T01:04:40;8.57;;;5.22;;
62338;SDS011;48368;53.406;6.214;2023-03-17T01:07:08;9.45;;;5.90;;
62338;SDS011;48368;53.406;6.214;2023-03-17T01:09:36;7.90;;;4.65;;
62338;SDS011;48368;53.406;6.214;2023-03-17T01:12:02;9.93;;;5.20;;
62338;SDS011;48368;53.406;6.214;2023-03-17T01:14:28;7.88;;;5.40;;
62338;SDS011;48368;53.406;6.214;2023-03-17T01:16:53;9.63;;;5.35;;
62338;SDS011;48368;53.406;6.214;2023-03-17T01:19:19;9.18;;;4.85;;
62338;SDS011;48368;53.406;6.214;2023-03-17T01:21:46;10.13;;;5.18;;
62338;SDS011;48368;53.406;6.214;2023-03-17T01:24:12;7.68;;;4.63;;
62338;SDS011;48368;53.406;6.214;2023-03-17T01:26:38;8.63;;;4.80;;
62338;SDS011;48368;53.406;6.214;2023-03-17T01:29:04;8.68;;;5.25;;
62338;SDS011;48368;53.406;6.214;2023-03-17T01:31:32;8.02;;;5.15;;
62338;SDS011;48368;53.406;6.214;2023-03-17T01:33:58;9.50;;;5.10;;
62338;SDS011;48368;53.406;6.214;2023-03-17T01:36:23;9.25;;;4.95;;
62338;SDS011;48368;53.406;6.214;2023-03-17T01:38:49;8.65;;;5.70;;
62338;SDS011;48368;53.406;6.214;2023-03-17T01:41:18;8.10;;;4.53;;
62338;SDS011;48368;53.406;6.214;2023-03-17T01:43:47;7.63;;;4.80;;
62338;SDS011;48368;53.406;6.214;2023-03-17T01:49:02;8.10;;;4.50;;
62338;SDS011;48368;53.406;6.214;2023-03-17T01:54:19;8.80;;;4.95;;
62338;SDS011;48368;53.406;6.214;2023-03-17T01:56:51;9.43;;;5.22;;
62338;SDS011;48368;53.406;6.214;2023-03-17T01:59:22;8.13;;;4.72;;
62338;SDS011;48368;53.406;6.214;2023-03-17T02:01:56;9.48;;;4.93;;
62338;SDS011;48368;53.406;6.214;2023-03-17T02:04:26;6.60;;;4.70;;
62338;SDS011;48368;53.406;6.214;2023-03-17T02:06:52;7.72;;;4.80;;
62338;SDS011;48368;53.406;6.214;2023-03-17T02:09:19;7.18;;;4.43;;
62338;SDS011;48368;53.406;6.214;2023-03-17T02:11:45;7.32;;;4.45;;
62338;SDS011;48368;53.406;6.214;2023-03-17T02:14:11;7.25;;;4.63;;
62338;SDS011;48368;53.406;6.214;2023-03-17T02:16:36;8.65;;;4.65;;
62338;SDS011;48368;53.406;6.214;2023-03-17T02:19:02;8.13;;;4.97;;
62338;SDS011;48368;53.406;6.214;2023-03-17T02:21:45;8.95;;;4.95;;
62338;SDS011;48368;53.406;6.214;2023-03-17T02:24:59;8.80;;;4.93;;
62338;SDS011;48368;53.406;6.214;2023-03-17T02:29:41;7.63;;;4.57;;
62338;SDS011;48368;53.406;6.214;2023-03-17T02:32:10;8.45;;;4.65;;
62338;SDS011;48368;53.406;6.214;2023-03-17T02:34:37;8.05;;;4.65;;
62338;SDS011;48368;53.406;6.214;2023-03-17T02:37:04;7.43;;;4.40;;
62338;SDS011;48368;53.406;6.214;2023-03-17T02:39:30;9.10;;;4.88;;
62338;SDS011;48368;53.406;6.214;2023-03-17T02:41:56;8.70;;;4.82;;
62338;SDS011;48368;53.406;6.214;2023-03-17T02:44:22;6.63;;;4.63;;
62338;SDS011;48368;53.406;6.214;2023-03-17T02:46:48;6.43;;;4.57;;
62338;SDS011;48368;53.406;6.214;2023-03-17T02:49:13;8.70;;;4.40;;
62338;SDS011;48368;53.406;6.214;2023-03-17T02:51:39;9.05;;;4.57;;
62338;SDS011;48368;53.406;6.214;2023-03-17T02:54:05;7.72;;;4.25;;
62338;SDS011;48368;53.406;6.214;2023-03-17T02:56:31;7.13;;;4.55;;
62338;SDS011;48368;53.406;6.214;2023-03-17T02:58:56;9.30;;;4.63;;
62338;SDS011;48368;53.406;6.214;2023-03-17T03:01:22;7.55;;;4.38;;
62338;SDS011;48368;53.406;6.214;2023-03-17T03:03:48;8.63;;;5.00;;
62338;SDS011;48368;53.406;6.214;2023-03-17T03:06:14;8.48;;;4.35;;
62338;SDS011;48368;53.406;6.214;2023-03-17T03:08:40;7.15;;;4.63;;
62338;SDS011;48368;53.406;6.214;2023-03-17T03:11:06;6.47;;;4.38;;
62338;SDS011;48368;53.406;6.214;2023-03-17T03:13:32;9.07;;;5.18;;
62338;SDS011;48368;53.406;6.214;2023-03-17T03:15:58;8.93;;;4.45;;
62338;SDS011;48368;53.406;6.214;2023-03-17T03:18:24;7.45;;;4.35;;
62338;SDS011;48368;53.406;6.214;2023-03-17T03:20:50;8.00;;;4.75;;
62338;SDS011;48368;53.406;6.214;2023-03-17T03:23:15;10.02;;;4.70;;
62338;SDS011;48368;53.406;6.214;2023-03-17T03:25:41;8.45;;;4.38;;
62338;SDS011;48368;53.406;6.214;2023-03-17T03:28:07;9.18;;;4.65;;
62338;SDS011;48368;53.406;6.214;2023-03-17T03:30:34;7.88;;;4.82;;
62338;SDS011;48368;53.406;6.214;2023-03-17T03:33:00;8.75;;;4.80;;
62338;SDS011;48368;53.406;6.214;2023-03-17T03:35:27;7.68;;;5.03;;
62338;SDS011;48368;53.406;6.214;2023-03-17T03:37:53;6.80;;;4.78;;
62338;SDS011;48368;53.406;6.214;2023-03-17T03:40:21;6.32;;;4.22;;
62338;SDS011;48368;53.406;6.214;2023-03-17T03:42:47;10.30;;;4.88;;
62338;SDS011;48368;53.406;6.214;2023-03-17T03:45:13;7.68;;;4.70;;
62338;SDS011;48368;53.406;6.214;2023-03-17T03:47:39;10.73;;;5.35;;
62338;SDS011;48368;53.406;6.214;2023-03-17T03:50:05;8.20;;;4.88;;
62338;SDS011;48368;53.406;6.214;2023-03-17T03:52:32;8.65;;;4.97;;
62338;SDS011;48368;53.406;6.214;2023-03-17T03:54:58;8.63;;;4.72;;
62338;SDS011;48368;53.406;6.214;2023-03-17T03:57:24;6.80;;;4.63;;
62338;SDS011;48368;53.406;6.214;2023-03-17T03:59:50;7.80;;;4.60;;
62338;SDS011;48368;53.406;6.214;2023-03-17T04:02:16;9.98;;;4.25;;
62338;SDS011;48368;53.406;6.214;2023-03-17T04:04:42;9.85;;;5.40;;
62338;SDS011;48368;53.406;6.214;2023-03-17T04:07:08;8.82;;;4.75;;
62338;SDS011;48368;53.406;6.214;2023-03-17T04:09:34;7.75;;;4.82;;
62338;SDS011;48368;53.406;6.214;2023-03-17T04:12:00;7.35;;;4.43;;
62338;SDS011;48368;53.406;6.214;2023-03-17T04:14:26;6.70;;;4.30;;
62338;SDS011;48368;53.406;6.214;2023-03-17T04:16:52;7.75;;;4.25;;
62338;SDS011;48368;53.406;6.214;2023-03-17T04:19:18;7.80;;;4.50;;
62338;SDS011;48368;53.406;6.214;2023-03-17T04:21:45;7.25;;;4.88;;
62338;SDS011;48368;53.406;6.214;2023-03-17T04:24:12;7.15;;;4.78;;
62338;SDS011;48368;53.406;6.214;2023-03-17T04:26:38;8.05;;;5.38;;
62338;SDS011;48368;53.406;6.214;2023-03-17T04:29:05;12.18;;;6.03;;
62338;SDS011;48368;53.406;6.214;2023-03-17T04:31:33;9.13;;;5.07;;
62338;SDS011;48368;53.406;6.214;2023-03-17T04:34:00;8.90;;;4.82;;
62338;SDS011;48368;53.406;6.214;2023-03-17T04:36:26;7.45;;;4.80;;
62338;SDS011;48368;53.406;6.214;2023-03-17T04:38:52;8.75;;;4.93;;
62338;SDS011;48368;53.406;6.214;2023-03-17T04:41:18;9.80;;;5.15;;
62338;SDS011;48368;53.406;6.214;2023-03-17T04:43:47;8.10;;;4.72;;
62338;SDS011;48368;53.406;6.214;2023-03-17T04:46:12;9.60;;;4.63;;
62338;SDS011;48368;53.406;6.214;2023-03-17T04:48:38;7.45;;;4.78;;
62338;SDS011;48368;53.406;6.214;2023-03-17T04:51:04;8.10;;;4.68;;
62338;SDS011;48368;53.406;6.214;2023-03-17T04:53:30;8.73;;;4.55;;
62338;SDS011;48368;53.406;6.214;2023-03-17T04:55:56;9.30;;;4.72;;
62338;SDS011;48368;53.406;6.214;2023-03-17T04:58:22;9.02;;;4.68;;
62338;SDS011;48368;53.406;6.214;2023-03-17T05:00:50;7.15;;;4.93;;
62338;SDS011;48368;53.406;6.214;2023-03-17T05:03:16;7.88;;;4.97;;
62338;SDS011;48368;53.406;6.214;2023-03-17T05:05:41;8.70;;;4.55;;
62338;SDS011;48368;53.406;6.214;2023-03-17T05:08:07;7.85;;;4.30;;
62338;SDS011;48368;53.406;6.214;2023-03-17T05:10:32;7.78;;;4.70;;
62338;SDS011;48368;53.406;6.214;2023-03-17T05:12:58;8.75;;;4.95;;
62338;SDS011;48368;53.406;6.214;2023-03-17T05:15:24;8.23;;;4.68;;
62338;SDS011;48368;53.406;6.214;2023-03-17T05:17:50;7.80;;;4.95;;
62338;SDS011;48368;53.406;6.214;2023-03-17T05:20:15;7.57;;;4.68;;
62338;SDS011;48368;53.406;6.214;2023-03-17T05:22:41;7.13;;;4.35;;
62338;SDS011;48368;53.406;6.214;2023-03-17T05:25:07;8.23;;;4.68;;
62338;SDS011;48368;53.406;6.214;2023-03-17T05:27:33;7.20;;;4.55;;
62338;SDS011;48368;53.406;6.214;2023-03-17T05:29:58;7.88;;;5.00;;
62338;SDS011;48368;53.406;6.214;2023-03-17T05:32:24;9.45;;;4.82;;
62338;SDS011;48368;53.406;6.214;2023-03-17T05:34:50;8.15;;;5.07;;
62338;SDS011;48368;53.406;6.214;2023-03-17T05:37:16;7.57;;;4.70;;
62338;SDS011;48368;53.406;6.214;2023-03-17T05:39:42;8.18;;;4.80;;
62338;SDS011;48368;53.406;6.214;2023-03-17T05:42:08;8.13;;;4.88;;
62338;SDS011;48368;53.406;6.214;2023-03-17T05:44:33;8.18;;;4.63;;
62338;SDS011;48368;53.406;6.214;2023-03-17T05:46:59;8.80;;;4.90;;
62338;SDS011;48368;53.406;6.214;2023-03-17T05:49:26;8.32;;;5.22;;
62338;SDS011;48368;53.406;6.214;2023-03-17T05:51:52;7.93;;;4.25;;
62338;SDS011;48368;53.406;6.214;2023-03-17T05:54:19;8.38;;;4.75;;
62338;SDS011;48368;53.406;6.214;2023-03-17T05:56:46;9.43;;;4.57;;
62338;SDS011;48368;53.406;6.214;2023-03-17T05:59:12;9.18;;;4.88;;
62338;SDS011;48368;53.406;6.214;2023-03-17T06:01:43;6.53;;;4.32;;
62338;SDS011;48368;53.406;6.214;2023-03-17T06:04:09;8.20;;;4.47;;
62338;SDS011;48368;53.406;6.214;2023-03-17T06:06:37;8.65;;;4.93;;
62338;SDS011;48368;53.406;6.214;2023-03-17T06:09:04;7.78;;;4.00;;
62338;SDS011;48368;53.406;6.214;2023-03-17T06:11:30;7.50;;;4.28;;
62338;SDS011;48368;53.406;6.214;2023-03-17T06:13:55;8.25;;;4.75;;
62338;SDS011;48368;53.406;6.214;2023-03-17T06:16:21;7.00;;;4.57;;
62338;SDS011;48368;53.406;6.214;2023-03-17T06:18:47;6.78;;;4.20;;
62338;SDS011;48368;53.406;6.214;2023-03-17T06:21:13;7.82;;;4.75;;
62338;SDS011;48368;53.406;6.214;2023-03-17T06:23:39;9.45;;;4.97;;
62338;SDS011;48368;53.406;6.214;2023-03-17T06:26:05;6.88;;;4.28;;
62338;SDS011;48368;53.406;6.214;2023-03-17T06:28:31;7.95;;;4.50;;
62338;SDS011;48368;53.406;6.214;2023-03-17T06:30:57;6.70;;;4.38;;
62338;SDS011;48368;53.406;6.214;2023-03-17T06:33:23;8.23;;;4.70;;
62338;SDS011;48368;53.406;6.214;2023-03-17T06:35:49;10.55;;;4.78;;
62338;SDS011;48368;53.406;6.214;2023-03-17T06:38:15;7.82;;;4.45;;
62338;SDS011;48368;53.406;6.214;2023-03-17T06:40:41;6.78;;;4.38;;
62338;SDS011;48368;53.406;6.214;2023-03-17T06:43:07;8.13;;;4.68;;
62338;SDS011;48368;53.406;6.214;2023-03-17T06:45:33;7.53;;;4.32;;
62338;SDS011;48368;53.406;6.214;2023-03-17T06:47:59;7.68;;;4.35;;
62338;SDS011;48368;53.406;6.214;2023-03-17T06:50:26;7.25;;;4.25;;
62338;SDS011;48368;53.406;6.214;2023-03-17T06:52:51;7.47;;;4.13;;
62338;SDS011;48368;53.406;6.214;2023-03-17T06:55:17;7.00;;;4.32;;
62338;SDS011;48368;53.406;6.214;2023-03-17T06:57:43;6.75;;;3.85;;
62338;SDS011;48368;53.406;6.214;2023-03-17T07:00:09;8.40;;;4.43;;
62338;SDS011;48368;53.406;6.214;2023-03-17T07:02:38;5.88;;;3.67;;
62338;SDS011;48368;53.406;6.214;2023-03-17T07:05:04;6.82;;;3.88;;
62338;SDS011;48368;53.406;6.214;2023-03-17T07:07:30;6.85;;;4.43;;
62338;SDS011;48368;53.406;6.214;2023-03-17T07:09:56;8.48;;;4.57;;
62338;SDS011;48368;53.406;6.214;2023-03-17T07:12:22;6.75;;;4.05;;
62338;SDS011;48368;53.406;6.214;2023-03-17T07:14:48;9.63;;;3.92;;
62338;SDS011;48368;53.406;6.214;2023-03-17T07:17:14;10.10;;;4.43;;
62338;SDS011;48368;53.406;6.214;2023-03-17T07:19:40;7.63;;;4.38;;
62338;SDS011;48368;53.406;6.214;2023-03-17T07:22:06;8.45;;;4.82;;
62338;SDS011;48368;53.406;6.214;2023-03-17T07:24:33;7.10;;;4.82;;
62338;SDS011;48368;53.406;6.214;2023-03-17T07:26:58;7.47;;;4.47;;
62338;SDS011;48368;53.406;6.214;2023-03-17T07:29:24;8.20;;;4.60;;
62338;SDS011;48368;53.406;6.214;2023-03-17T07:31:51;8.30;;;4.63;;
62338;SDS011;48368;53.406;6.214;2023-03-17T07:34:17;7.65;;;4.88;;
62338;SDS011;48368;53.406;6.214;2023-03-17T07:36:44;8.15;;;4.35;;
62338;SDS011;48368;53.406;6.214;2023-03-17T07:39:09;6.20;;;3.83;;
62338;SDS011;48368;53.406;6.214;2023-03-17T07:41:35;7.35;;;4.50;;
62338;SDS011;48368;53.406;6.214;2023-03-17T07:44:01;7.97;;;3.90;;
62338;SDS011;48368;53.406;6.214;2023-03-17T07:46:28;9.18;;;4.50;;
62338;SDS011;48368;53.406;6.214;2023-03-17T07:48:53;8.35;;;4.47;;
62338;SDS011;48368;53.406;6.214;2023-03-17T07:51:20;5.60;;;4.07;;
62338;SDS011;48368;53.406;6.214;2023-03-17T07:53:47;7.55;;;4.68;;
62338;SDS011;48368;53.406;6.214;2023-03-17T07:56:16;7.68;;;4.25;;
62338;SDS011;48368;53.406;6.214;2023-03-17T07:58:42;5.78;;;4.03;;
62338;SDS011;48368;53.406;6.214;2023-03-17T08:01:12;7.90;;;5.00;;
62338;SDS011;48368;53.406;6.214;2023-03-17T08:03:39;7.05;;;4.15;;
62338;SDS011;48368;53.406;6.214;2023-03-17T08:06:05;7.72;;;4.93;;
62338;SDS011;48368;53.406;6.214;2023-03-17T08:08:30;7.13;;;3.97;;
62338;SDS011;48368;53.406;6.214;2023-03-17T08:10:57;7.82;;;4.03;;
62338;SDS011;48368;53.406;6.214;2023-03-17T08:13:27;6.22;;;4.30;;
62338;SDS011;48368;53.406;6.214;2023-03-17T08:15:53;6.50;;;4.18;;
62338;SDS011;48368;53.406;6.214;2023-03-17T08:18:19;8.05;;;4.40;;
62338;SDS011;48368;53.406;6.214;2023-03-17T08:20:45;6.45;;;4.15;;
62338;SDS011;48368;53.406;6.214;2023-03-17T08:23:11;7.32;;;4.68;;
62338;SDS011;48368;53.406;6.214;2023-03-17T08:25:37;5.82;;;4.15;;
62338;SDS011;48368;53.406;6.214;2023-03-17T08:28:02;6.32;;;4.00;;
62338;SDS011;48368;53.406;6.214;2023-03-17T08:30:28;6.13;;;4.28;;
62338;SDS011;48368;53.406;6.214;2023-03-17T08:32:54;6.50;;;4.22;;
62338;SDS011;48368;53.406;6.214;2023-03-17T08:35:20;8.18;;;4.43;;
62338;SDS011;48368;53.406;6.214;2023-03-17T08:37:46;8.57;;;4.28;;
62338;SDS011;48368;53.406;6.214;2023-03-17T08:40:12;7.78;;;4.10;;
62338;SDS011;48368;53.406;6.214;2023-03-17T08:42:44;9.00;;;4.72;;
62338;SDS011;48368;53.406;6.214;2023-03-17T08:45:11;8.10;;;4.35;;
62338;SDS011;48368;53.406;6.214;2023-03-17T08:47:39;7.72;;;4.57;;
62338;SDS011;48368;53.406;6.214;2023-03-17T08:50:06;8.70;;;4.88;;
62338;SDS011;48368;53.406;6.214;2023-03-17T08:52:39;6.43;;;3.90;;
62338;SDS011;48368;53.406;6.214;2023-03-17T08:55:05;7.10;;;4.57;;
62338;SDS011;48368;53.406;6.214;2023-03-17T08:57:33;8.75;;;3.90;;
62338;SDS011;48368;53.406;6.214;2023-03-17T08:59:59;6.97;;;4.05;;
62338;SDS011;48368;53.406;6.214;2023-03-17T09:02:26;6.82;;;3.97;;
62338;SDS011;48368;53.406;6.214;2023-03-17T09:04:53;6.75;;;4.32;;
62338;SDS011;48368;53.406;6.214;2023-03-17T09:07:19;7.05;;;4.50;;
62338;SDS011;48368;53.406;6.214;2023-03-17T09:09:45;7.72;;;4.75;;
62338;SDS011;48368;53.406;6.214;2023-03-17T09:12:12;9.68;;;4.60;;
62338;SDS011;48368;53.406;6.214;2023-03-17T09:14:38;20.73;;;4.82;;
62338;SDS011;48368;53.406;6.214;2023-03-17T09:17:05;7.78;;;4.72;;
62338;SDS011;48368;53.406;6.214;2023-03-17T09:19:32;8.05;;;4.30;;
62338;SDS011;48368;53.406;6.214;2023-03-17T09:21:58;10.20;;;4.65;;
62338;SDS011;48368;53.406;6.214;2023-03-17T09:24:24;11.35;;;5.00;;
62338;SDS011;48368;53.406;6.214;2023-03-17T09:26:50;7.88;;;4.88;;
62338;SDS011;48368;53.406;6.214;2023-03-17T09:29:15;8.32;;;4.18;;
62338;SDS011;48368;53.406;6.214;2023-03-17T09:31:41;7.93;;;4.57;;
62338;SDS011;48368;53.406;6.214;2023-03-17T09:34:07;6.63;;;4.38;;
62338;SDS011;48368;53.406;6.214;2023-03-17T09:36:33;14.65;;;4.70;;
62338;SDS011;48368;53.406;6.214;2023-03-17T09:38:59;7.03;;;4.53;;
62338;SDS011;48368;53.406;6.214;2023-03-17T09:41:36;9.57;;;4.72;;
62338;SDS011;48368;53.406;6.214;2023-03-17T09:46:46;9.85;;;5.03;;
62338;SDS011;48368;53.406;6.214;2023-03-17T09:54:42;10.43;;;5.72;;
62338;SDS011;48368;53.406;6.214;2023-03-17T09:57:15;12.35;;;5.90;;
62338;SDS011;48368;53.406;6.214;2023-03-17T10:00:02;10.77;;;6.03;;
62338;SDS011;48368;53.406;6.214;2023-03-17T10:02:50;9.48;;;6.13;;
62338;SDS011;48368;53.406;6.214;2023-03-17T10:05:21;9.10;;;6.05;;
62338;SDS011;48368;53.406;6.214;2023-03-17T10:10:55;11.52;;;5.97;;
62338;SDS011;48368;53.406;6.214;2023-03-17T10:16:12;9.90;;;6.65;;
62338;SDS011;48368;53.406;6.214;2023-03-17T10:19:00;11.32;;;6.70;;
62338;SDS011;48368;53.406;6.214;2023-03-17T10:21:33;12.35;;;7.05;;
62338;SDS011;48368;53.406;6.214;2023-03-17T10:24:07;11.48;;;6.38;;
62338;SDS011;48368;53.406;6.214;2023-03-17T10:26:39;11.93;;;6.88;;
62338;SDS011;48368;53.406;6.214;2023-03-17T10:29:20;10.23;;;6.55;;
62338;SDS011;48368;53.406;6.214;2023-03-17T10:31:51;11.82;;;6.72;;
62338;SDS011;48368;53.406;6.214;2023-03-17T10:34:20;12.40;;;7.15;;
62338;SDS011;48368;53.406;6.214;2023-03-17T10:37:00;10.25;;;6.80;;
62338;SDS011;48368;53.406;6.214;2023-03-17T10:42:09;11.15;;;6.38;;
62338;SDS011;48368;53.406;6.214;2023-03-17T10:49:55;9.32;;;6.65;;
62338;SDS011;48368;53.406;6.214;2023-03-17T10:52:22;8.90;;;6.30;;
62338;SDS011;48368;53.406;6.214;2023-03-17T10:54:51;11.18;;;6.57;;
62338;SDS011;48368;53.406;6.214;2023-03-17T10:57:19;10.48;;;5.70;;
62338;SDS011;48368;53.406;6.214;2023-03-17T10:59:52;9.02;;;5.57;;
62338;SDS011;48368;53.406;6.214;2023-03-17T11:02:22;8.63;;;6.05;;
62338;SDS011;48368;53.406;6.214;2023-03-17T11:05:01;10.10;;;6.03;;
62338;SDS011;48368;53.406;6.214;2023-03-17T11:07:36;11.25;;;5.45;;
62338;SDS011;48368;53.406;6.214;2023-03-17T11:10:04;9.93;;;6.35;;
62338;SDS011;48368;53.406;6.214;2023-03-17T11:12:43;10.95;;;5.38;;
62338;SDS011;48368;53.406;6.214;2023-03-17T11:15:14;13.18;;;5.93;;
62338;SDS011;48368;53.406;6.214;2023-03-17T11:17:44;8.55;;;5.72;;
62338;SDS011;48368;53.406;6.214;2023-03-17T11:23:15;10.38;;;6.07;;
62338;SDS011;48368;53.406;6.214;2023-03-17T11:26:05;8.27;;;5.97;;
62338;SDS011;48368;53.406;6.214;2023-03-17T11:28:43;9.45;;;6.25;;
62338;SDS011;48368;53.406;6.214;2023-03-17T11:39:14;10.13;;;6.28;;
62338;SDS011;48368;53.406;6.214;2023-03-17T11:50:15;11.98;;;6.80;;
62338;SDS011;48368;53.406;6.214;2023-03-17T11:56:17;8.95;;;6.80;;
62338;SDS011;48368;53.406;6.214;2023-03-17T11:58:40;9.02;;;6.57;;
62338;SDS011;48368;53.406;6.214;2023-03-17T12:01:09;10.93;;;6.97;;
62338;SDS011;48368;53.406;6.214;2023-03-17T12:06:16;10.45;;;6.55;;
62338;SDS011;48368;53.406;6.214;2023-03-17T12:11:51;12.30;;;7.57;;
62338;SDS011;48368;53.406;6.214;2023-03-17T12:14:24;10.65;;;7.55;;
62338;SDS011;48368;53.406;6.214;2023-03-17T12:22:23;10.82;;;7.53;;
62338;SDS011;48368;53.406;6.214;2023-03-17T12:36:02;10.40;;;7.88;;
62338;SDS011;48368;53.406;6.214;2023-03-17T12:41:38;12.57;;;7.95;;
62338;SDS011;48368;53.406;6.214;2023-03-17T12:50:33;9.82;;;7.53;;
62338;SDS011;48368;53.406;6.214;2023-03-17T12:55:58;13.38;;;8.23;;
62338;SDS011;48368;53.406;6.214;2023-03-17T12:58:38;11.52;;;7.85;;
62338;SDS011;48368;53.406;6.214;2023-03-17T13:11:56;11.93;;;9.10;;
62338;SDS011;48368;53.406;6.214;2023-03-17T13:22:30;11.25;;;8.95;;
62338;SDS011;48368;53.406;6.214;2023-03-17T13:25:04;12.77;;;9.30;;
62338;SDS011;48368;53.406;6.214;2023-03-17T13:27:43;11.35;;;7.90;;
62338;SDS011;48368;53.406;6.214;2023-03-17T13:46:45;15.57;;;9.10;;
62338;SDS011;48368;53.406;6.214;2023-03-17T13:54:33;12.23;;;9.00;;
62338;SDS011;48368;53.406;6.214;2023-03-17T13:57:21;11.77;;;9.13;;
62338;SDS011;48368;53.406;6.214;2023-03-17T13:59:56;12.98;;;8.95;;
62338;SDS011;48368;53.406;6.214;2023-03-17T14:02:30;13.77;;;9.18;;
62338;SDS011;48368;53.406;6.214;2023-03-17T14:04:59;12.90;;;8.93;;
62338;SDS011;48368;53.406;6.214;2023-03-17T14:07:38;15.20;;;9.48;;
62338;SDS011;48368;53.406;6.214;2023-03-17T14:10:16;15.57;;;9.18;;
62338;SDS011;48368;53.406;6.214;2023-03-17T14:15:31;13.02;;;8.80;;
62338;SDS011;48368;53.406;6.214;2023-03-17T14:18:15;13.65;;;8.88;;
62338;SDS011;48368;53.406;6.214;2023-03-17T14:20:53;12.80;;;8.98;;
62338;SDS011;48368;53.406;6.214;2023-03-17T14:23:21;12.50;;;8.25;;
62338;SDS011;48368;53.406;6.214;2023-03-17T14:25:48;13.75;;;9.52;;
62338;SDS011;48368;53.406;6.214;2023-03-17T14:28:18;10.93;;;8.80;;
62338;SDS011;48368;53.406;6.214;2023-03-17T14:30:53;13.13;;;8.25;;
62338;SDS011;48368;53.406;6.214;2023-03-17T14:33:24;15.10;;;9.85;;
62338;SDS011;48368;53.406;6.214;2023-03-17T14:35:52;14.60;;;9.15;;
62338;SDS011;48368;53.406;6.214;2023-03-17T14:38:21;13.45;;;8.65;;
62338;SDS011;48368;53.406;6.214;2023-03-17T14:40:49;12.48;;;9.02;;
62338;SDS011;48368;53.406;6.214;2023-03-17T14:43:24;17.25;;;9.50;;
62338;SDS011;48368;53.406;6.214;2023-03-17T14:46:12;15.55;;;9.77;;
62338;SDS011;48368;53.406;6.214;2023-03-17T14:48:39;14.15;;;8.65;;
62338;SDS011;48368;53.406;6.214;2023-03-17T14:51:28;14.68;;;9.85;;
62338;SDS011;48368;53.406;6.214;2023-03-17T14:53:57;14.05;;;9.10;;
62338;SDS011;48368;53.406;6.214;2023-03-17T14:56:35;14.43;;;9.32;;
62338;SDS011;48368;53.406;6.214;2023-03-17T14:59:54;15.65;;;9.45;;
62338;SDS011;48368;53.406;6.214;2023-03-17T15:02:20;12.48;;;9.38;;
62338;SDS011;48368;53.406;6.214;2023-03-17T15:04:55;13.57;;;9.10;;
62338;SDS011;48368;53.406;6.214;2023-03-17T15:07:41;22.90;;;14.55;;
62338;SDS011;48368;53.406;6.214;2023-03-17T15:10:14;20.08;;;12.98;;
62338;SDS011;48368;53.406;6.214;2023-03-17T15:12:41;21.67;;;14.02;;
62338;SDS011;48368;53.406;6.214;2023-03-17T15:15:12;17.35;;;11.68;;
62338;SDS011;48368;53.406;6.214;2023-03-17T15:20:20;18.00;;;11.38;;
62338;SDS011;48368;53.406;6.214;2023-03-17T15:22:58;15.20;;;11.27;;
62338;SDS011;48368;53.406;6.214;2023-03-17T15:27:56;18.02;;;11.73;;
62338;SDS011;48368;53.406;6.214;2023-03-17T15:30:22;15.15;;;11.55;;
62338;SDS011;48368;53.406;6.214;2023-03-17T15:32:49;15.65;;;12.25;;
62338;SDS011;48368;53.406;6.214;2023-03-17T15:35:26;16.83;;;11.98;;
62338;SDS011;48368;53.406;6.214;2023-03-17T15:37:52;22.20;;;13.43;;
62338;SDS011;48368;53.406;6.214;2023-03-17T15:40:18;17.15;;;12.43;;
62338;SDS011;48368;53.406;6.214;2023-03-17T15:42:44;16.10;;;11.68;;
62338;SDS011;48368;53.406;6.214;2023-03-17T15:45:13;18.17;;;11.25;;
62338;SDS011;48368;53.406;6.214;2023-03-17T15:47:41;20.55;;;11.65;;
62338;SDS011;48368;53.406;6.214;2023-03-17T15:50:15;16.35;;;10.98;;
62338;SDS011;48368;53.406;6.214;2023-03-17T15:52:45;15.32;;;10.68;;
62338;SDS011;48368;53.406;6.214;2023-03-17T15:55:21;15.23;;;10.90;;
62338;SDS011;48368;53.406;6.214;2023-03-17T15:57:49;17.23;;;10.52;;
62338;SDS011;48368;53.406;6.214;2023-03-17T16:00:16;13.57;;;10.00;;
62338;SDS011;48368;53.406;6.214;2023-03-17T16:02:43;14.45;;;10.15;;
62338;SDS011;48368;53.406;6.214;2023-03-17T16:05:15;19.88;;;10.85;;
62338;SDS011;48368;53.406;6.214;2023-03-17T16:07:43;17.77;;;11.00;;
62338;SDS011;48368;53.406;6.214;2023-03-17T16:12:42;15.15;;;11.23;;
62338;SDS011;48368;53.406;6.214;2023-03-17T16:15:12;14.70;;;11.38;;
62338;SDS011;48368;53.406;6.214;2023-03-17T16:17:39;15.32;;;11.35;;
62338;SDS011;48368;53.406;6.214;2023-03-17T16:20:05;16.77;;;12.02;;
62338;SDS011;48368;53.406;6.214;2023-03-17T16:22:41;22.75;;;12.35;;
62338;SDS011;48368;53.406;6.214;2023-03-17T16:27:44;16.25;;;11.98;;
62338;SDS011;48368;53.406;6.214;2023-03-17T16:30:14;18.13;;;12.65;;
62338;SDS011;48368;53.406;6.214;2023-03-17T16:32:41;20.10;;;13.15;;
62338;SDS011;48368;53.406;6.214;2023-03-17T16:35:17;18.67;;;12.35;;
62338;SDS011;48368;53.406;6.214;2023-03-17T16:37:45;25.33;;;14.00;;
62338;SDS011;48368;53.406;6.214;2023-03-17T16:40:33;19.88;;;13.25;;
62338;SDS011;48368;53.406;6.214;2023-03-17T16:42:59;21.48;;;12.68;;
62338;SDS011;48368;53.406;6.214;2023-03-17T16:45:32;20.40;;;13.10;;
62338;SDS011;48368;53.406;6.214;2023-03-17T16:48:00;21.35;;;12.82;;
62338;SDS011;48368;53.406;6.214;2023-03-17T16:50:29;19.52;;;13.13;;
62338;SDS011;48368;53.406;6.214;2023-03-17T16:52:57;18.85;;;13.27;;
62338;SDS011;48368;53.406;6.214;2023-03-17T16:55:23;23.40;;;13.18;;
62338;SDS011;48368;53.406;6.214;2023-03-17T16:57:51;19.17;;;13.68;;
62338;SDS011;48368;53.406;6.214;2023-03-17T17:00:20;19.52;;;13.30;;
62338;SDS011;48368;53.406;6.214;2023-03-17T17:02:51;19.73;;;13.18;;
62338;SDS011;48368;53.406;6.214;2023-03-17T17:05:20;25.25;;;13.02;;
62338;SDS011;48368;53.406;6.214;2023-03-17T17:07:52;20.45;;;13.80;;
62338;SDS011;48368;53.406;6.214;2023-03-17T17:10:19;18.95;;;12.82;;